Time;durP1;ratioP1;P1;durP2;ratioP2;P2;SDS_P1;SDS_P2;PMS_P1;PMS_P2;Temp;Humidity;BMP_temperature;BMP_pressure;BME280_temperature;BME280_humidity;BME280_pressure;Samples;Min_cycle;Max_cycle;Signal;HPM_P1;HPM_P2
2021/08/09 00:01:35;;;;;;;10.60;3.20;;;14.10;99.90;;;;;;4955502;29;20100;-73
2021/08/09 00:04:01;;;;;;;11.98;3.08;;;14.10;99.90;;;;;;4956214;29;20058;-73
2021/08/09 00:06:26;;;;;;;11.18;3.47;;;14.10;99.90;;;;;;4937856;29;20023;-70
2021/08/09 00:08:52;;;;;;;11.55;3.80;;;14.10;99.90;;;;;;4955939;29;20027;-70
2021/08/09 00:11:18;;;;;;;10.00;3.63;;;14.10;99.90;;;;;;4954291;29;20464;-69
2021/08/09 00:13:43;;;;;;;7.40;3.05;;;14.00;99.90;;;;;;4955943;29;20046;-70
2021/08/09 00:16:09;;;;;;;8.52;3.13;;;14.00;99.90;;;;;;4955079;28;20023;-71
2021/08/09 00:18:35;;;;;;;11.60;3.50;;;14.00;99.90;;;;;;4954590;29;20791;-73
2021/08/09 00:21:00;;;;;;;15.70;3.90;;;14.00;99.90;;;;;;4955638;29;20424;-72
2021/08/09 00:23:26;;;;;;;10.68;3.55;;;14.00;99.90;;;;;;4956366;28;20027;-70
2021/08/09 00:25:52;;;;;;;8.40;3.22;;;14.00;99.90;;;;;;4953728;29;20023;-69
2021/08/09 00:28:17;;;;;;;9.88;3.83;;;13.90;99.90;;;;;;4954424;29;20059;-70
2021/08/09 00:30:43;;;;;;;9.60;3.63;;;13.90;99.90;;;;;;4955358;29;20429;-70
2021/08/09 00:33:09;;;;;;;8.13;3.58;;;13.90;99.90;;;;;;4954687;29;20039;-70
2021/08/09 00:35:34;;;;;;;7.15;3.47;;;13.90;99.90;;;;;;4955086;29;20031;-70
2021/08/09 00:38:00;;;;;;;12.55;3.67;;;13.90;99.90;;;;;;4955322;29;20031;-70
2021/08/09 00:40:25;;;;;;;8.98;3.80;;;13.90;99.90;;;;;;4954309;28;20019;-69
2021/08/09 00:42:51;;;;;;;8.48;3.38;;;13.90;99.90;;;;;;4938333;29;20015;-70
2021/08/09 00:45:17;;;;;;;7.50;3.28;;;13.90;99.90;;;;;;4954920;29;20020;-70
2021/08/09 00:47:43;;;;;;;10.55;3.08;;;13.80;99.90;;;;;;4937607;29;20376;-70
2021/08/09 00:50:09;;;;;;;8.43;3.30;;;13.80;99.90;;;;;;4955055;29;20027;-70
2021/08/09 00:52:35;;;;;;;6.32;3.13;;;13.80;99.90;;;;;;4954760;29;20039;-69
2021/08/09 00:55:01;;;;;;;13.23;4.15;;;13.80;99.90;;;;;;4954432;29;20481;-69
2021/08/09 00:57:26;;;;;;;6.30;3.40;;;13.80;99.90;;;;;;4954872;29;20428;-70
2021/08/09 00:59:52;;;;;;;11.55;3.70;;;13.80;99.90;;;;;;4937847;29;20046;-70
2021/08/09 01:02:19;;;;;;;8.48;3.22;;;13.80;99.90;;;;;;4954042;29;20480;-70
2021/08/09 01:04:45;;;;;;;11.05;3.58;;;13.80;99.90;;;;;;4955040;29;20031;-70
2021/08/09 01:07:10;;;;;;;12.18;3.90;;;13.80;99.90;;;;;;4954831;29;20032;-69
2021/08/09 01:09:43;;;;;;;9.27;3.47;;;13.80;99.90;;;;;;4954116;29;20027;-70
2021/08/09 01:12:36;;;;;;;12.18;3.65;;;13.80;99.90;;;;;;4954940;29;20019;-71
2021/08/09 01:15:08;;;;;;;6.35;3.08;;;13.80;99.90;;;;;;4954182;29;20031;-70
2021/08/09 01:17:41;;;;;;;14.45;3.75;;;13.80;99.90;;;;;;4937330;29;20435;-72
2021/08/09 01:20:16;;;;;;;8.75;3.53;;;13.80;99.90;;;;;;4954702;28;20373;-70
2021/08/09 01:23:12;;;;;;;8.60;3.50;;;13.80;99.90;;;;;;4954260;29;20020;-70
2021/08/09 01:25:47;;;;;;;12.07;3.85;;;13.70;99.90;;;;;;4954685;29;20038;-70
2021/08/09 01:28:13;;;;;;;7.50;3.58;;;13.70;99.90;;;;;;4940646;29;20483;-72
2021/08/09 01:30:40;;;;;;;13.20;3.65;;;13.70;99.90;;;;;;4958457;29;20094;-69
2021/08/09 01:33:09;;;;;;;7.28;3.55;;;13.70;99.90;;;;;;4959265;28;20045;-70
2021/08/09 01:35:36;;;;;;;10.15;3.22;;;13.70;99.90;;;;;;4960268;28;20705;-70
2021/08/09 01:38:03;;;;;;;11.63;3.28;;;13.60;99.90;;;;;;4956938;29;20098;-72
2021/08/09 01:40:30;;;;;;;9.27;3.15;;;13.60;99.90;;;;;;4960906;28;20018;-73
2021/08/09 01:42:57;;;;;;;9.02;3.65;;;13.60;99.90;;;;;;4959850;28;20475;-71
2021/08/09 01:45:23;;;;;;;11.85;3.53;;;13.60;99.90;;;;;;4967394;28;20023;-74
2021/08/09 01:47:50;;;;;;;12.98;3.65;;;13.60;99.90;;;;;;4958434;29;20030;-70
2021/08/09 01:50:16;;;;;;;5.60;3.22;;;13.60;99.90;;;;;;4940161;29;20113;-71
2021/08/09 01:52:43;;;;;;;8.27;3.88;;;13.60;99.90;;;;;;4941011;29;20147;-71
2021/08/09 01:55:11;;;;;;;8.40;3.30;;;13.60;99.90;;;;;;4941074;29;20019;-69
2021/08/09 01:57:37;;;;;;;8.38;3.30;;;13.60;99.90;;;;;;4957652;29;20033;-70
2021/08/09 02:00:21;;;;;;;13.57;3.60;;;13.50;99.90;;;;;;4958084;29;20027;-69
2021/08/09 02:02:48;;;;;;;9.50;4.22;;;13.50;99.90;;;;;;4958081;29;20047;-69
2021/08/09 02:05:15;;;;;;;8.07;3.47;;;13.50;99.90;;;;;;4957326;29;20032;-70
2021/08/09 02:07:46;;;;;;;7.18;3.47;;;13.50;99.90;;;;;;4957974;29;20023;-70
2021/08/09 02:10:24;;;;;;;8.60;3.92;;;13.50;99.90;;;;;;4940853;29;20106;-70
2021/08/09 02:13:11;;;;;;;17.98;3.40;;;13.50;99.90;;;;;;4957145;29;20071;-73
2021/08/09 02:15:41;;;;;;;14.07;4.50;;;13.50;99.90;;;;;;4940715;29;20026;-73
2021/08/09 02:18:14;;;;;;;10.77;3.58;;;13.40;99.90;;;;;;4957326;29;20392;-71
2021/08/09 02:20:44;;;;;;;8.05;3.08;;;13.50;99.90;;;;;;4957753;29;20027;-71
2021/08/09 02:23:14;;;;;;;10.30;3.95;;;13.50;99.90;;;;;;4957549;29;20434;-70
2021/08/09 02:25:45;;;;;;;8.57;3.30;;;13.50;99.90;;;;;;4938822;29;20053;-70
2021/08/09 02:28:22;;;;;;;10.25;3.42;;;13.50;99.90;;;;;;4955629;29;20042;-73
2021/08/09 02:30:53;;;;;;;9.13;3.45;;;13.60;99.90;;;;;;4957757;29;20027;-70
2021/08/09 02:33:22;;;;;;;7.93;3.73;;;13.60;99.90;;;;;;4956264;29;20039;-71
2021/08/09 02:35:49;;;;;;;9.20;3.20;;;13.70;99.90;;;;;;4957397;29;20098;-75
2021/08/09 02:38:15;;;;;;;11.50;3.58;;;13.70;99.90;;;;;;4956226;28;20019;-70
2021/08/09 02:40:42;;;;;;;10.00;3.22;;;13.70;99.90;;;;;;4956687;29;20514;-70
2021/08/09 02:43:08;;;;;;;10.00;3.60;;;13.70;99.90;;;;;;4957543;29;20019;-70
2021/08/09 02:45:36;;;;;;;7.38;3.13;;;13.80;99.90;;;;;;4957106;29;20078;-71
2021/08/09 02:48:01;;;;;;;12.05;3.22;;;13.70;99.90;;;;;;4939498;29;20023;-70
2021/08/09 02:50:27;;;;;;;12.27;3.08;;;13.80;99.90;;;;;;4956818;29;20037;-70
2021/08/09 02:52:54;;;;;;;14.82;3.90;;;13.80;99.90;;;;;;4957257;29;20070;-70
2021/08/09 02:55:20;;;;;;;8.52;3.15;;;13.80;99.90;;;;;;4956243;29;20027;-71
2021/08/09 02:57:48;;;;;;;7.95;3.17;;;13.80;99.90;;;;;;4957104;29;20033;-70
2021/08/09 03:00:14;;;;;;;10.25;3.17;;;13.70;99.90;;;;;;4956060;29;20020;-69
2021/08/09 03:02:42;;;;;;;9.25;3.15;;;13.70;99.90;;;;;;4956919;29;20055;-70
2021/08/09 03:05:10;;;;;;;7.00;3.00;;;13.70;99.90;;;;;;4957080;29;20016;-70
2021/08/09 03:07:38;;;;;;;8.02;3.42;;;13.70;99.90;;;;;;4956312;29;20042;-70
2021/08/09 03:10:08;;;;;;;9.63;3.17;;;13.70;99.90;;;;;;4939728;29;20487;-70
2021/08/09 03:12:34;;;;;;;10.40;3.47;;;13.70;99.90;;;;;;4956445;29;20083;-69
2021/08/09 03:15:00;;;;;;;14.25;3.67;;;13.60;99.90;;;;;;4956218;29;20035;-70
2021/08/09 03:17:26;;;;;;;10.52;3.40;;;13.70;99.90;;;;;;4956498;29;20114;-70
2021/08/09 03:19:52;;;;;;;10.07;3.90;;;13.60;99.90;;;;;;4956547;29;20102;-73
2021/08/09 03:22:17;;;;;;;11.18;4.25;;;13.60;99.90;;;;;;4955876;29;20421;-73
2021/08/09 03:24:43;;;;;;;15.88;3.97;;;13.60;99.90;;;;;;4956796;29;20361;-71
2021/08/09 03:27:09;;;;;;;10.85;3.80;;;13.60;99.90;;;;;;4939413;29;20038;-71
2021/08/09 03:29:34;;;;;;;9.50;2.95;;;13.60;99.90;;;;;;4955445;29;20030;-70
2021/08/09 03:32:00;;;;;;;11.48;3.63;;;13.70;99.90;;;;;;4956682;29;20035;-71
2021/08/09 03:34:26;;;;;;;9.27;4.00;;;13.70;99.90;;;;;;4956103;29;20041;-72
2021/08/09 03:36:52;;;;;;;7.50;3.40;;;13.70;99.90;;;;;;4938579;29;20030;-71
2021/08/09 03:39:19;;;;;;;10.77;3.60;;;13.70;99.90;;;;;;4956162;29;20058;-73
2021/08/09 03:41:45;;;;;;;10.88;3.83;;;13.70;99.90;;;;;;4956349;29;20027;-73
2021/08/09 03:44:11;;;;;;;9.07;3.40;;;13.70;99.90;;;;;;4955412;29;20032;-71
2021/08/09 03:46:37;;;;;;;10.30;3.15;;;13.70;99.90;;;;;;4956188;29;20031;-70
2021/08/09 03:49:09;;;;;;;6.75;3.35;;;13.70;99.90;;;;;;4956258;29;20031;-70
2021/08/09 03:51:39;;;;;;;12.65;3.53;;;13.70;99.90;;;;;;4955057;28;20054;-72
2021/08/09 03:54:06;;;;;;;10.15;2.97;;;13.70;99.90;;;;;;4939048;29;20046;-71
2021/08/09 03:56:32;;;;;;;9.23;3.40;;;13.70;99.90;;;;;;4955155;29;20020;-71
2021/08/09 03:58:57;;;;;;;11.15;3.75;;;13.70;99.90;;;;;;4956099;29;20436;-71
2021/08/09 04:01:23;;;;;;;12.70;3.58;;;13.70;99.90;;;;;;4938298;29;20039;-70
2021/08/09 04:03:49;;;;;;;10.40;3.00;;;13.70;99.90;;;;;;4955130;29;20067;-71
2021/08/09 04:06:16;;;;;;;7.22;3.15;;;13.70;99.90;;;;;;4955497;29;20019;-70
2021/08/09 04:08:42;;;;;;;10.07;3.63;;;13.70;99.90;;;;;;4938872;29;20039;-71
2021/08/09 04:11:07;;;;;;;9.07;2.88;;;13.70;99.90;;;;;;4955130;29;20104;-70
2021/08/09 04:13:36;;;;;;;7.28;2.55;;;13.70;99.90;;;;;;4938110;29;20046;-75
2021/08/09 04:16:02;;;;;;;9.48;3.22;;;13.60;99.90;;;;;;4955687;29;20073;-70
2021/08/09 04:18:28;;;;;;;9.32;2.75;;;13.60;99.90;;;;;;4954688;29;20421;-74
2021/08/09 04:20:53;;;;;;;11.77;3.42;;;13.60;99.90;;;;;;4955440;29;20074;-70
2021/08/09 04:23:19;;;;;;;13.00;3.20;;;13.60;99.90;;;;;;4955474;29;20046;-72
2021/08/09 04:25:44;;;;;;;6.95;3.22;;;13.60;99.90;;;;;;4955030;29;20031;-70
2021/08/09 04:28:10;;;;;;;7.25;3.15;;;13.60;99.90;;;;;;4955733;29;20042;-71
2021/08/09 04:30:36;;;;;;;8.07;2.63;;;13.60;99.90;;;;;;4938142;29;20027;-69
2021/08/09 04:33:03;;;;;;;13.43;4.57;;;13.60;99.90;;;;;;4954690;29;20050;-75
2021/08/09 04:35:29;;;;;;;11.05;4.13;;;13.60;99.90;;;;;;4955137;29;20030;-71
2021/08/09 04:37:55;;;;;;;5.95;3.13;;;13.60;99.90;;;;;;4955351;29;20031;-71
2021/08/09 04:40:20;;;;;;;5.22;2.60;;;13.60;99.90;;;;;;4937156;29;20495;-73
2021/08/09 04:42:46;;;;;;;14.32;3.20;;;13.60;99.90;;;;;;4955406;29;20098;-71
2021/08/09 04:45:11;;;;;;;8.95;3.40;;;13.70;99.90;;;;;;4937641;29;20436;-71
2021/08/09 04:47:37;;;;;;;9.55;2.78;;;13.70;99.90;;;;;;4954625;29;20028;-70
2021/08/09 04:50:03;;;;;;;9.77;3.38;;;13.70;99.90;;;;;;4955102;29;20034;-72
2021/08/09 04:52:28;;;;;;;9.50;3.38;;;13.80;99.90;;;;;;4954737;29;20090;-72
2021/08/09 04:54:54;;;;;;;9.88;2.70;;;13.80;99.90;;;;;;4954330;29;20547;-70
2021/08/09 04:57:19;;;;;;;11.52;3.60;;;13.90;99.90;;;;;;4954588;29;20527;-70
2021/08/09 04:59:45;;;;;;;7.97;3.05;;;14.00;99.90;;;;;;4954561;29;20019;-70
2021/08/09 05:02:10;;;;;;;13.93;2.88;;;14.10;99.90;;;;;;4937126;29;20124;-70
2021/08/09 05:04:36;;;;;;;10.43;3.92;;;14.20;99.90;;;;;;4954743;29;20048;-70
2021/08/09 05:07:03;;;;;;;7.95;3.13;;;14.30;99.90;;;;;;4954238;29;20539;-70
2021/08/09 05:09:28;;;;;;;9.90;3.50;;;14.50;99.90;;;;;;4936778;29;20451;-70
2021/08/09 05:11:54;;;;;;;14.98;3.22;;;14.60;99.90;;;;;;4954793;29;20031;-70
2021/08/09 05:14:19;;;;;;;6.07;3.08;;;14.60;99.90;;;;;;4954301;29;20050;-70
2021/08/09 05:16:46;;;;;;;12.05;3.55;;;14.70;99.90;;;;;;4954557;29;20364;-69
2021/08/09 05:19:12;;;;;;;9.88;3.10;;;14.80;99.90;;;;;;4953212;29;20024;-70
2021/08/09 05:21:37;;;;;;;13.95;3.08;;;14.80;99.90;;;;;;4953835;29;20042;-70
2021/08/09 05:24:08;;;;;;;6.72;2.85;;;14.90;99.90;;;;;;4955011;29;20476;-72
2021/08/09 05:26:34;;;;;;;8.23;3.10;;;14.90;99.90;;;;;;4954610;29;20037;-73
2021/08/09 05:29:00;;;;;;;7.13;2.90;;;15.00;99.90;;;;;;4954158;29;20496;-71
2021/08/09 05:31:27;;;;;;;13.63;3.15;;;14.90;99.90;;;;;;4927865;29;20019;-69
2021/08/09 05:33:54;;;;;;;8.25;2.83;;;15.00;99.90;;;;;;4942607;29;20130;-69
2021/08/09 05:36:20;;;;;;;8.98;3.00;;;15.00;99.90;;;;;;4917383;29;20024;-71
2021/08/09 05:38:45;;;;;;;7.85;3.50;;;15.10;99.90;;;;;;4929657;29;20038;-71
2021/08/09 05:41:11;;;;;;;7.93;2.95;;;15.20;99.90;;;;;;4954519;29;20051;-78
2021/08/09 05:43:36;;;;;;;6.00;2.67;;;15.30;99.90;;;;;;4937352;29;20074;-78
2021/08/09 05:46:02;;;;;;;10.00;3.42;;;15.40;99.90;;;;;;4937832;29;20030;-82
2021/08/09 05:48:28;;;;;;;10.60;3.05;;;15.50;99.90;;;;;;4954026;29;20122;-69
2021/08/09 05:50:54;;;;;;;10.25;3.00;;;15.50;99.90;;;;;;4953396;29;20091;-70
2021/08/09 05:53:19;;;;;;;9.20;3.17;;;15.60;99.90;;;;;;4953447;29;20043;-73
2021/08/09 05:55:45;;;;;;;8.88;2.75;;;15.60;99.90;;;;;;4954324;29;20023;-69
2021/08/09 05:58:11;;;;;;;13.55;3.30;;;15.60;99.90;;;;;;4953284;29;20110;-69
2021/08/09 06:00:36;;;;;;;7.40;3.33;;;15.60;99.90;;;;;;4953795;29;20023;-73
2021/08/09 06:03:03;;;;;;;16.65;4.00;;;15.60;99.90;;;;;;4953482;29;20058;-69
2021/08/09 06:05:28;;;;;;;13.02;3.70;;;15.60;99.90;;;;;;4952550;29;20094;-72
2021/08/09 06:07:54;;;;;;;11.25;3.25;;;15.50;99.90;;;;;;4950541;29;20078;-70
2021/08/09 06:10:21;;;;;;;8.88;3.70;;;15.50;99.90;;;;;;4951574;29;20496;-72
2021/08/09 06:12:47;;;;;;;6.40;3.25;;;15.40;99.90;;;;;;4936050;28;20035;-72
2021/08/09 06:15:13;;;;;;;7.53;3.28;;;15.40;99.90;;;;;;4955727;29;20487;-72
2021/08/09 06:17:39;;;;;;;10.98;3.50;;;15.30;99.90;;;;;;4938247;29;20039;-72
2021/08/09 06:20:05;;;;;;;9.90;3.47;;;15.30;99.90;;;;;;4956504;29;20158;-73
2021/08/09 06:22:30;;;;;;;6.82;3.30;;;15.30;99.90;;;;;;4956590;29;20035;-72
2021/08/09 06:24:56;;;;;;;11.15;3.30;;;15.20;99.90;;;;;;4956394;29;20046;-73
2021/08/09 06:27:22;;;;;;;8.57;3.00;;;15.20;99.90;;;;;;4956625;29;20024;-72
2021/08/09 06:29:47;;;;;;;8.65;3.30;;;15.10;99.90;;;;;;4956873;29;20106;-71
2021/08/09 06:32:13;;;;;;;9.68;3.00;;;15.10;99.90;;;;;;4939075;29;20020;-72
2021/08/09 06:34:39;;;;;;;8.27;3.20;;;15.10;99.90;;;;;;4957137;29;20027;-72
2021/08/09 06:37:05;;;;;;;14.55;3.63;;;15.10;99.90;;;;;;4956585;29;20028;-71
2021/08/09 06:39:30;;;;;;;8.20;3.45;;;15.10;99.90;;;;;;4956664;29;20081;-75
2021/08/09 06:41:58;;;;;;;6.32;2.80;;;15.20;99.90;;;;;;4957770;29;20023;-82
2021/08/09 06:44:24;;;;;;;6.40;2.78;;;15.20;99.90;;;;;;4939894;29;20031;-72
2021/08/09 06:46:49;;;;;;;7.88;3.65;;;15.20;99.90;;;;;;4956585;29;20090;-75
2021/08/09 06:49:15;;;;;;;9.90;3.85;;;15.30;99.90;;;;;;4957187;29;20030;-73
2021/08/09 06:51:40;;;;;;;6.38;3.53;;;15.30;99.90;;;;;;4940390;29;20023;-80
2021/08/09 06:54:06;;;;;;;7.82;3.20;;;15.40;99.90;;;;;;4956821;29;20035;-78
2021/08/09 06:56:32;;;;;;;5.88;3.55;;;15.50;99.90;;;;;;4957270;29;20031;-81
2021/08/09 06:58:57;;;;;;;6.13;3.42;;;15.40;99.90;;;;;;4940487;29;20030;-76
2021/08/09 07:01:23;;;;;;;11.65;4.13;;;15.50;99.90;;;;;;4956598;29;20468;-80
2021/08/09 07:03:49;;;;;;;11.40;4.28;;;15.50;99.90;;;;;;4957305;29;20044;-71
2021/08/09 07:06:22;;;;;;;6.28;3.28;;;15.60;99.90;;;;;;4956228;29;20027;-71
2021/08/09 07:08:49;;;;;;;8.43;3.22;;;15.70;99.90;;;;;;4939942;29;20027;-75
2021/08/09 07:11:16;;;;;;;7.38;3.33;;;15.70;99.90;;;;;;4956664;29;20024;-70
2021/08/09 07:13:41;;;;;;;5.93;2.97;;;15.80;99.90;;;;;;4956322;29;20476;-71
2021/08/09 07:16:07;;;;;;;5.15;2.88;;;15.90;99.90;;;;;;4956923;29;20058;-72
2021/08/09 07:18:33;;;;;;;7.38;3.22;;;15.90;99.90;;;;;;4956686;29;20035;-71
2021/08/09 07:20:59;;;;;;;7.22;3.03;;;16.00;99.90;;;;;;4956751;29;20030;-77
2021/08/09 07:23:25;;;;;;;4.80;2.72;;;16.10;99.90;;;;;;4939302;29;20023;-75
2021/08/09 07:25:51;;;;;;;6.90;2.97;;;16.10;99.90;;;;;;4956595;28;20383;-75
2021/08/09 07:28:16;;;;;;;5.72;2.85;;;16.20;99.90;;;;;;4956238;29;20038;-88
2021/08/09 07:30:42;;;;;;;6.05;3.00;;;16.20;99.90;;;;;;4956561;29;20030;-75
2021/08/09 07:33:07;;;;;;;9.43;3.15;;;16.30;99.90;;;;;;4956739;29;20031;-77
2021/08/09 07:35:33;;;;;;;6.30;3.00;;;16.30;99.90;;;;;;4957124;29;20019;-87
2021/08/09 07:37:59;;;;;;;10.20;3.28;;;16.40;99.90;;;;;;4957124;29;20027;-81
2021/08/09 07:40:25;;;;;;;8.38;2.55;;;16.50;99.90;;;;;;4956452;29;20035;-79
2021/08/09 07:42:51;;;;;;;10.38;3.53;;;16.50;99.90;;;;;;4939148;29;20057;-82
2021/08/09 07:45:16;;;;;;;7.55;3.03;;;16.60;99.90;;;;;;4956523;29;20449;-83
2021/08/09 07:47:42;;;;;;;7.95;2.80;;;16.60;99.90;;;;;;4956673;29;20098;-85
2021/08/09 07:50:08;;;;;;;6.88;3.25;;;16.70;99.90;;;;;;4938882;29;20472;-87
2021/08/09 07:52:33;;;;;;;8.00;3.15;;;16.70;99.90;;;;;;4956064;29;20035;-73
2021/08/09 07:54:59;;;;;;;6.38;2.90;;;16.80;99.90;;;;;;4956240;29;20031;-71
2021/08/09 07:57:24;;;;;;;11.10;3.17;;;16.80;99.90;;;;;;4955350;29;20031;-71
2021/08/09 07:59:53;;;;;;;4.55;2.70;;;16.90;99.90;;;;;;4956315;29;20388;-75
2021/08/09 08:02:18;;;;;;;8.15;3.08;;;16.90;99.90;;;;;;4955732;29;20019;-72
2021/08/09 08:04:44;;;;;;;7.60;2.83;;;17.00;99.90;;;;;;4955538;29;20082;-71
2021/08/09 08:07:09;;;;;;;7.65;2.88;;;17.00;99.90;;;;;;4956171;29;20028;-81
2021/08/09 08:09:35;;;;;;;4.70;2.17;;;17.10;99.90;;;;;;4955426;29;20360;-78
2021/08/09 08:12:01;;;;;;;7.28;2.90;;;17.10;99.90;;;;;;4956274;29;20494;-72
2021/08/09 08:14:28;;;;;;;7.07;2.63;;;17.20;99.90;;;;;;4955510;29;20047;-72
2021/08/09 08:16:54;;;;;;;7.28;2.97;;;17.30;99.90;;;;;;4955190;29;20030;-75
2021/08/09 08:19:19;;;;;;;5.80;2.80;;;17.40;99.90;;;;;;4955479;29;20038;-72
2021/08/09 08:21:45;;;;;;;5.35;2.33;;;17.40;99.90;;;;;;4956021;29;20380;-71
2021/08/09 08:24:10;;;;;;;3.97;2.22;;;17.50;99.90;;;;;;4937522;29;20380;-75
2021/08/09 08:26:36;;;;;;;5.95;2.90;;;17.50;99.90;;;;;;4955590;29;20483;-72
2021/08/09 08:29:02;;;;;;;7.47;2.70;;;17.50;99.90;;;;;;4938204;29;20070;-71
2021/08/09 08:31:27;;;;;;;5.88;3.22;;;17.60;99.90;;;;;;4937252;29;20114;-72
2021/08/09 08:33:53;;;;;;;4.82;2.60;;;17.70;99.90;;;;;;4938866;29;20034;-76
2021/08/09 08:36:18;;;;;;;6.28;2.35;;;17.90;99.90;;;;;;4954752;28;20031;-73
2021/08/09 08:38:44;;;;;;;6.55;2.63;;;18.10;99.90;;;;;;4955117;29;20038;-71
2021/08/09 08:41:10;;;;;;;7.60;2.95;;;18.20;99.90;;;;;;4955525;29;20476;-72
2021/08/09 08:43:36;;;;;;;4.55;2.38;;;18.50;99.90;;;;;;4955324;29;20093;-79
2021/08/09 08:46:04;;;;;;;5.45;2.60;;;18.70;99.90;;;;;;4955019;29;20106;-75
2021/08/09 08:48:32;;;;;;;6.85;2.47;;;18.80;99.90;;;;;;4955055;29;20027;-71
2021/08/09 08:50:58;;;;;;;6.40;2.50;;;18.90;99.90;;;;;;4938227;29;20019;-77
2021/08/09 08:53:27;;;;;;;6.65;3.00;;;18.90;99.90;;;;;;4954382;29;20035;-78
2021/08/09 08:55:53;;;;;;;5.20;2.50;;;19.00;99.90;;;;;;4955150;29;20070;-74
2021/08/09 08:58:18;;;;;;;6.28;2.25;;;19.10;99.90;;;;;;4937614;29;20114;-81
2021/08/09 09:00:47;;;;;;;5.30;2.83;;;19.20;99.90;;;;;;4937216;29;20171;-71
2021/08/09 09:03:24;;;;;;;5.38;2.60;;;19.30;99.90;;;;;;4954631;29;20059;-72
2021/08/09 09:06:02;;;;;;;12.85;2.95;;;19.50;99.90;;;;;;4937131;29;20023;-72
2021/08/09 09:08:39;;;;;;;3.15;1.80;;;19.80;99.90;;;;;;4954873;29;20054;-71
2021/08/09 09:11:06;;;;;;;5.43;2.33;;;20.10;99.90;;;;;;4954900;29;20035;-72
2021/08/09 09:13:32;;;;;;;2.85;1.83;;;20.30;99.90;;;;;;4936773;29;20038;-71
2021/08/09 09:16:09;;;;;;;4.32;1.90;;;20.50;99.90;;;;;;4955129;29;20019;-81
2021/08/09 09:18:42;;;;;;;4.38;1.88;;;20.80;99.90;;;;;;4937416;29;20031;-76
2021/08/09 09:21:12;;;;;;;4.93;1.65;;;21.00;99.90;;;;;;4953989;29;20024;-72
2021/08/09 09:23:38;;;;;;;4.22;1.88;;;21.20;99.90;;;;;;4954937;29;20028;-72
2021/08/09 09:26:19;;;;;;;3.35;1.98;;;21.50;99.90;;;;;;4954947;29;20380;-72
2021/08/09 09:28:44;;;;;;;4.70;1.80;;;21.60;99.90;;;;;;4954119;29;20024;-72
2021/08/09 09:31:14;;;;;;;4.60;1.80;;;21.50;99.90;;;;;;4954345;29;20031;-72
2021/08/09 09:33:46;;;;;;;3.67;1.70;;;21.50;99.90;;;;;;4954585;29;20035;-76
2021/08/09 09:36:12;;;;;;;4.97;2.50;;;21.70;99.90;;;;;;4953895;29;20098;-74
2021/08/09 09:38:44;;;;;;;5.35;2.00;;;21.90;99.90;;;;;;4954911;29;20102;-72
2021/08/09 09:41:10;;;;;;;4.90;1.98;;;22.00;99.90;;;;;;4953956;29;20019;-79
2021/08/09 09:43:39;;;;;;;5.07;2.20;;;22.20;99.90;;;;;;4954818;29;20098;-73
2021/08/09 09:46:05;;;;;;;7.15;2.65;;;22.30;99.90;;;;;;4954736;29;20030;-78
2021/08/09 09:48:38;;;;;;;3.85;2.00;;;22.40;99.90;;;;;;4955456;28;20035;-72
2021/08/09 09:51:18;;;;;;;4.72;2.10;;;22.40;99.90;;;;;;4941007;29;20499;-73
2021/08/09 09:53:45;;;;;;;4.45;1.95;;;22.50;99.90;;;;;;4958365;29;20486;-78
2021/08/09 09:56:11;;;;;;;4.05;1.65;;;22.60;99.90;;;;;;4957549;29;20030;-72
2021/08/09 09:58:38;;;;;;;5.03;2.00;;;22.50;99.90;;;;;;4958394;29;20031;-71
2021/08/09 10:01:05;;;;;;;3.08;1.83;;;22.30;99.90;;;;;;4958233;29;20023;-72
2021/08/09 10:03:32;;;;;;;5.38;2.33;;;22.20;99.90;;;;;;4957306;29;20055;-71
2021/08/09 10:06:00;;;;;;;4.75;2.15;;;22.30;99.90;;;;;;4958362;29;20078;-76
2021/08/09 10:08:31;;;;;;;5.35;2.20;;;22.50;99.90;;;;;;4957903;29;20027;-72
2021/08/09 10:11:02;;;;;;;6.15;2.10;;;22.70;99.90;;;;;;4957282;29;20081;-75
2021/08/09 10:13:30;;;;;;;3.45;1.65;;;22.70;99.90;;;;;;4957747;29;20392;-74
2021/08/09 10:16:02;;;;;;;4.43;2.10;;;22.60;99.90;;;;;;4940997;29;20050;-73
2021/08/09 10:18:31;;;;;;;4.50;2.47;;;22.60;99.90;;;;;;4939955;29;20110;-71
2021/08/09 10:20:58;;;;;;;4.30;2.17;;;22.60;99.70;;;;;;4957833;29;20031;-72
2021/08/09 10:23:53;;;;;;;4.85;1.83;;;22.80;99.60;;;;;;4939836;29;20472;-72
2021/08/09 10:26:30;;;;;;;2.85;2.10;;;23.00;98.90;;;;;;4937233;29;20039;-72
2021/08/09 10:28:59;;;;;;;3.45;2.00;;;23.10;99.00;;;;;;4957805;29;20029;-72
2021/08/09 10:31:25;;;;;;;5.53;2.33;;;23.40;98.90;;;;;;4956717;29;20046;-72
2021/08/09 10:33:52;;;;;;;5.80;2.00;;;23.60;98.10;;;;;;4957933;29;20121;-76
2021/08/09 10:36:22;;;;;;;5.68;2.08;;;23.60;98.00;;;;;;4957505;29;20023;-72
2021/08/09 10:38:50;;;;;;;4.80;1.88;;;23.60;97.30;;;;;;4957142;29;20031;-75
2021/08/09 10:41:15;;;;;;;4.53;2.00;;;23.50;97.90;;;;;;4940097;29;20110;-73
2021/08/09 10:44:06;;;;;;;4.70;1.77;;;23.40;97.20;;;;;;4957598;29;20452;-73
2021/08/09 10:46:36;;;;;;;5.50;1.98;;;23.60;97.60;;;;;;4939617;29;20484;-73
2021/08/09 10:49:03;;;;;;;5.63;2.22;;;23.80;97.30;;;;;;4957460;29;20444;-77
2021/08/09 10:51:50;;;;;;;5.78;2.10;;;23.90;96.40;;;;;;4939075;29;20392;-72
2021/08/09 10:54:27;;;;;;;5.07;1.80;;;24.00;96.50;;;;;;4939934;29;20129;-72
2021/08/09 10:56:53;;;;;;;3.60;1.92;;;24.10;96.60;;;;;;4939989;29;20027;-76
2021/08/09 10:59:37;;;;;;;4.43;2.13;;;24.10;95.90;;;;;;4955782;28;20028;-73
2021/08/09 11:02:04;;;;;;;5.10;2.05;;;24.00;95.50;;;;;;4957341;29;20392;-71
2021/08/09 11:04:29;;;;;;;5.60;2.40;;;24.00;95.70;;;;;;4956737;29;20106;-71
2021/08/09 11:06:55;;;;;;;4.65;1.70;;;24.00;96.20;;;;;;4956423;29;20031;-72
2021/08/09 11:09:36;;;;;;;3.83;1.70;;;23.80;95.80;;;;;;4956933;29;20024;-71
2021/08/09 11:12:21;;;;;;;5.80;1.83;;;23.50;95.40;;;;;;4957104;29;20034;-72
2021/08/09 11:17:44;;;;;;;3.28;1.50;;;23.40;94.90;;;;;;4957090;29;20027;-75
2021/08/09 11:20:13;;;;;;;3.25;1.48;;;23.30;95.40;;;;;;4956600;29;20156;-83
2021/08/09 11:22:44;;;;;;;2.63;1.60;;;23.10;95.80;;;;;;4957324;29;20030;-81
2021/08/09 11:25:26;;;;;;;4.30;1.80;;;22.90;96.60;;;;;;4957071;29;20034;-77
2021/08/09 11:28:11;;;;;;;3.97;1.85;;;22.60;97.80;;;;;;4939138;29;20098;-73
2021/08/09 11:30:49;;;;;;;4.57;1.98;;;22.30;98.90;;;;;;4940010;29;20035;-80
2021/08/09 11:33:25;;;;;;;5.45;1.90;;;22.20;99.30;;;;;;4939415;29;20027;-74
2021/08/09 11:35:52;;;;;;;3.80;1.98;;;21.90;99.90;;;;;;4939387;29;20031;-81
2021/08/09 11:38:18;;;;;;;4.30;2.00;;;21.60;99.90;;;;;;4956629;29;20023;-75
2021/08/09 11:40:49;;;;;;;3.17;2.03;;;21.30;99.90;;;;;;4938521;29;20122;-76
2021/08/09 11:43:25;;;;;;;5.60;1.83;;;21.00;99.90;;;;;;4939393;29;20024;-73
2021/08/09 11:45:52;;;;;;;2.83;1.60;;;20.80;99.90;;;;;;4956674;29;20035;-78
2021/08/09 11:48:27;;;;;;;4.32;1.90;;;20.70;99.90;;;;;;4938286;29;20055;-74
2021/08/09 11:50:58;;;;;;;5.78;2.00;;;21.10;99.90;;;;;;4939366;29;20023;-74
2021/08/09 11:53:25;;;;;;;4.68;2.00;;;21.60;99.90;;;;;;4956327;29;20031;-80
2021/08/09 11:56:02;;;;;;;4.85;2.13;;;21.90;99.90;;;;;;4938468;29;20407;-75
2021/08/09 11:58:29;;;;;;;4.60;1.90;;;22.30;99.90;;;;;;4955918;29;20031;-83
2021/08/09 12:00:55;;;;;;;6.05;2.35;;;22.70;99.90;;;;;;4956410;29;20016;-83
2021/08/09 12:03:23;;;;;;;2.92;1.65;;;23.10;98.90;;;;;;4955108;29;20062;-76
2021/08/09 12:05:48;;;;;;;2.80;1.60;;;23.30;98.00;;;;;;4956277;29;20031;-73
2021/08/09 12:08:14;;;;;;;3.10;1.52;;;23.30;97.50;;;;;;4938681;29;20023;-74
2021/08/09 12:10:40;;;;;;;2.47;1.60;;;23.20;97.50;;;;;;4955114;28;20023;-77
2021/08/09 12:13:32;;;;;;;3.38;1.70;;;23.10;97.50;;;;;;4955482;29;20067;-77
2021/08/09 12:16:14;;;;;;;4.22;1.50;;;23.00;97.60;;;;;;4951341;28;20451;-71
2021/08/09 12:18:51;;;;;;;3.63;1.80;;;23.10;97.70;;;;;;4956029;29;20031;-71
2021/08/09 12:21:17;;;;;;;2.15;1.40;;;23.20;96.90;;;;;;4955454;29;20468;-76
2021/08/09 12:23:52;;;;;;;4.10;1.50;;;23.40;96.70;;;;;;4954915;29;20039;-72
2021/08/09 12:26:25;;;;;;;4.07;1.80;;;23.60;97.40;;;;;;4955457;29;20031;-71
2021/08/09 12:28:53;;;;;;;3.97;1.48;;;23.80;96.30;;;;;;4955663;29;20027;-72
2021/08/09 12:31:48;;;;;;;5.13;1.60;;;24.00;95.60;;;;;;4954540;29;20016;-74
2021/08/09 12:34:21;;;;;;;3.08;1.77;;;24.30;95.60;;;;;;4935274;29;20043;-71
2021/08/09 12:36:47;;;;;;;3.75;1.70;;;24.20;94.60;;;;;;4954971;29;20031;-83
2021/08/09 12:39:33;;;;;;;2.92;1.42;;;23.90;94.40;;;;;;4937873;29;20575;-74
2021/08/09 12:42:17;;;;;;;6.35;2.58;;;23.40;94.70;;;;;;4955361;29;20035;-70
2021/08/09 12:44:44;;;;;;;3.40;2.10;;;23.00;95.10;;;;;;4954842;29;20038;-72
2021/08/09 12:47:10;;;;;;;2.88;1.42;;;22.80;96.40;;;;;;4955292;29;20026;-72
2021/08/09 12:49:35;;;;;;;3.95;1.60;;;22.60;95.90;;;;;;4955233;29;20031;-71
2021/08/09 12:52:01;;;;;;;2.22;1.33;;;22.60;96.60;;;;;;4937518;29;20031;-72